Ponchatoula, LA (70454)

10:06 AM CDT on September 01, 2014 (GMT -0500)
Bayou Canada South | Change Station
CLOSE
Current Station
Personal Weather Station
Location: Ponchatoula, LA
Elevation: 35 ft
Nearby Weather Stations

Elev 35 ft 30.45 °N, 90.36 °W | Updated 5 seconds ago

Scattered Clouds
Scattered Clouds
86.1 °F
Feels Like 100 °F
N
2.0
Wind Variable Wind from SE
Gusts 8.0 mph

Today
High -- | Low -- °F
--% Chance of Precip.
Yesterday
High -- | Low -- °F
Precip. -- in
6:38 AM 7:24 PM
Waxing Crescent, 41% visible
Pressure 30.08 in
Visibility 10.0 miles
Clouds Scattered Clouds 2100 ft
Scattered Clouds 2500 ft
Scattered Clouds 3700 ft
Heat Index 100 °F
Dew Point 79 °F
Humidity 80%
Rainfall 0.00 in
Snow Depth Not available.
UV 1.3 out of 12
Pollen 8.50 out of 12
Air Quality Not available.
Flu Activity Not available.
METAR KHDC 011455Z AUTO 13010KT 10SM SCT021 SCT025 SCT037 31/24 A3008 RMK AO2

More Conditions Fewer Conditions

Pressure 30.08 in
Visibility 10.0 miles
Clouds Scattered Clouds 2100 ft
Scattered Clouds 2500 ft
Scattered Clouds 3700 ft
Heat Index 100 °F
Dew Point 79 °F
Humidity 80%
Rainfall 0.00 in
Snow Depth Not available.
UV 1.3 out of 12
Pollen 8.50 out of 12
Air Quality Not available.
Flu Activity Not available.
METAR KHDC 011455Z AUTO 13010KT 10SM SCT021 SCT025 SCT037 31/24 A3008 RMK AO2

More Conditions Fewer Conditions

10-Day Weather Forecast

Almanac

Astronomy

Sep. 01, 2014 Rise Set
Actual Time 6:38 AM CDT 7:24 PM CDT
Civil Twilight 6:13 AM CDT 7:48 PM CDT
Nautical Twilight 5:44 AM CDT 8:17 PM CDT
Astronomical Twilight 5:15 AM CDT 8:47 PM CDT
Moon 12:56 PM CDT 11:54 PM CDT
Length of Visible Light 13h 35m
Length of Day
12h 46m
Tomorrow will be 1m 46s shorter.
Waxing Crescent, 41% of the Moon is Illuminated
Today
Waxing Crescent
Sep 2
First Quarter
Sep 8
Full
Sep 15
Last Quarter
Sep 24
New

Today's Extremes

State Highs State Lows

Community

WunderPhotos

Upload Photos

1,749,256 photos uploaded!

Nearby

Snow Depth

Station Depth Elevation
No new snow has been reported.

Earthquake Activity

City Distance Mag. Time & Date
No recent earthquake activity has been reported nearby.
Minimum magnitude displayed is 2.5.

Coastal Water Temperatures

Place Temperature
New Canal, LA 81.0 °F
Shell Beach, LA 80.1 °F
Bayou Gauche, LA 84.0 °F

Nearby Weather Stations